createdAt,value
2022-09-30T00:01:50.914Z,10.47
2022-09-30T00:04:21.884Z,10.63
2022-09-30T00:06:51.885Z,11.63
2022-09-30T00:09:21.800Z,10.90
2022-09-30T00:11:50.893Z,12.27
2022-09-30T00:14:21.363Z,10.23
2022-09-30T00:16:51.615Z,12.23
2022-09-30T00:19:20.207Z,11.37
2022-09-30T00:21:49.135Z,11.50
2022-09-30T00:24:17.719Z,10.33
2022-09-30T00:26:46.257Z,10.20
2022-09-30T00:29:14.770Z,9.47
2022-09-30T00:31:43.524Z,8.63
2022-09-30T00:34:13.522Z,9.03
2022-09-30T00:36:44.788Z,9.33
2022-09-30T00:39:16.183Z,9.40
2022-09-30T00:41:45.638Z,9.37
2022-09-30T00:44:45.505Z,8.20
2022-09-30T00:47:32.595Z,8.20
2022-09-30T00:50:07.542Z,10.60
2022-09-30T00:52:36.472Z,8.60
2022-09-30T00:55:11.113Z,8.60
2022-09-30T00:57:40.992Z,7.83
2022-09-30T01:00:10.565Z,8.63
2022-09-30T01:02:39.292Z,8.30
2022-09-30T01:05:11.932Z,7.87
2022-09-30T01:07:40.805Z,7.67
2022-09-30T01:10:09.892Z,8.10
2022-09-30T01:12:38.552Z,7.77
2022-09-30T01:15:08.360Z,8.27
2022-09-30T01:17:48.270Z,8.23
2022-09-30T01:20:54.356Z,8.23
2022-09-30T01:23:48.211Z,7.97
2022-09-30T01:26:46.100Z,7.70
2022-09-30T01:29:58.216Z,7.03
2022-09-30T01:32:42.775Z,7.03
2022-09-30T01:35:19.466Z,7.37
2022-09-30T01:38:01.777Z,8.40
2022-09-30T01:40:40.916Z,7.43
2022-09-30T01:43:15.323Z,8.13
2022-09-30T01:45:47.637Z,7.97
2022-09-30T01:48:22.524Z,7.20
2022-09-30T01:50:58.729Z,8.70
2022-09-30T01:53:38.479Z,8.10
2022-09-30T01:56:14.732Z,7.80
2022-09-30T01:58:52.355Z,6.80
2022-09-30T02:01:26.431Z,8.03
2022-09-30T02:03:59.998Z,8.97
2022-09-30T02:06:32.860Z,8.17
2022-09-30T02:09:06.750Z,9.20
2022-09-30T02:11:37.343Z,6.97
2022-09-30T02:14:12.836Z,7.20
2022-09-30T02:16:44.993Z,7.23
2022-09-30T02:19:20.559Z,6.33
2022-09-30T02:21:57.908Z,7.53
2022-09-30T02:24:32.152Z,7.63
2022-09-30T02:27:02.586Z,7.73
2022-09-30T02:29:36.821Z,7.50
2022-09-30T02:32:11.271Z,7.73
2022-09-30T02:34:45.589Z,7.93
2022-09-30T02:37:18.411Z,6.53
2022-09-30T02:39:51.785Z,8.93
2022-09-30T02:42:23.212Z,7.07
2022-09-30T02:44:53.447Z,7.93
2022-09-30T02:47:29.670Z,7.53
2022-09-30T02:50:07.172Z,8.90
2022-09-30T02:52:48.594Z,7.33
2022-09-30T02:55:23.117Z,7.47
2022-09-30T02:58:00.012Z,8.30
2022-09-30T03:00:28.845Z,8.70
2022-09-30T03:03:01.846Z,7.70
2022-09-30T03:05:32.282Z,8.53
2022-09-30T03:08:01.666Z,8.50
2022-09-30T03:10:31.736Z,7.80
2022-09-30T03:13:16.491Z,8.03
2022-09-30T03:15:57.543Z,7.77
2022-09-30T03:18:47.444Z,6.83
2022-09-30T03:21:31.123Z,6.50
2022-09-30T03:24:28.767Z,7.77
2022-09-30T03:27:05.576Z,6.93
2022-09-30T03:29:45.474Z,6.20
2022-09-30T03:32:28.417Z,6.23
2022-09-30T03:35:06.188Z,7.90
2022-09-30T03:37:46.226Z,6.07
2022-09-30T03:40:24.825Z,6.30
2022-09-30T03:42:58.737Z,8.00
2022-09-30T03:45:32.636Z,7.60
2022-09-30T03:48:06.336Z,8.97
2022-09-30T03:50:38.409Z,7.90
2022-09-30T03:53:13.417Z,6.57
2022-09-30T03:55:50.763Z,6.83
2022-09-30T03:58:22.157Z,6.97
2022-09-30T04:00:52.981Z,8.07
2022-09-30T04:03:23.435Z,8.57
2022-09-30T04:05:52.053Z,7.57
2022-09-30T04:08:23.021Z,8.33
2022-09-30T04:10:51.723Z,8.10
2022-09-30T04:13:20.273Z,8.37
2022-09-30T04:15:55.282Z,8.23
2022-09-30T04:18:23.917Z,7.47
2022-09-30T04:20:52.523Z,7.63
2022-09-30T04:23:22.504Z,8.20
2022-09-30T04:25:54.038Z,7.97
2022-09-30T04:28:23.237Z,8.00
2022-09-30T04:30:51.820Z,8.53
2022-09-30T04:33:20.349Z,7.33
2022-09-30T04:35:48.934Z,7.53
2022-09-30T04:38:17.499Z,8.00
2022-09-30T04:40:49.568Z,6.97
2022-09-30T04:43:19.103Z,7.73
2022-09-30T04:45:48.172Z,10.40
2022-09-30T04:48:17.569Z,8.13
2022-09-30T04:50:46.409Z,6.33
2022-09-30T04:53:15.712Z,6.87
2022-09-30T04:55:47.615Z,6.47
2022-09-30T04:58:17.711Z,7.57
2022-09-30T05:00:46.291Z,7.27
2022-09-30T05:03:15.084Z,6.07
2022-09-30T05:05:45.917Z,6.00
2022-09-30T05:08:15.635Z,6.60
2022-09-30T05:10:44.207Z,7.60
2022-09-30T05:13:12.767Z,6.93
2022-09-30T05:15:43.083Z,6.50
2022-09-30T05:18:11.822Z,6.40
2022-09-30T05:20:40.475Z,6.33
2022-09-30T05:23:09.350Z,6.07
2022-09-30T05:25:38.142Z,8.10
2022-09-30T05:28:06.767Z,8.63
2022-09-30T05:30:35.429Z,10.33
2022-09-30T05:33:05.601Z,8.80
2022-09-30T05:35:34.474Z,7.10
2022-09-30T05:38:04.746Z,8.13
2022-09-30T05:40:33.761Z,7.47
2022-09-30T05:43:02.608Z,7.17
2022-09-30T05:45:31.283Z,8.00
2022-09-30T05:48:02.001Z,7.23
2022-09-30T05:50:32.437Z,7.10
2022-09-30T05:53:02.202Z,7.67
2022-09-30T05:55:34.724Z,8.50
2022-09-30T05:58:06.967Z,8.47
2022-09-30T06:00:35.591Z,7.10
2022-09-30T06:03:04.282Z,9.10
2022-09-30T06:05:34.339Z,8.63
2022-09-30T06:08:07.195Z,9.53
2022-09-30T06:10:36.649Z,8.77
2022-09-30T06:13:05.436Z,7.43
2022-09-30T06:15:36.578Z,7.47
2022-09-30T06:18:05.367Z,8.33
2022-09-30T06:20:35.387Z,8.30
2022-09-30T06:23:05.161Z,8.50
2022-09-30T06:25:33.789Z,8.07
2022-09-30T06:28:05.467Z,9.03
2022-09-30T06:30:35.434Z,6.87
2022-09-30T06:33:04.383Z,7.73
2022-09-30T06:35:34.303Z,8.77
2022-09-30T06:38:02.924Z,9.07
2022-09-30T06:40:31.631Z,7.90
2022-09-30T06:43:00.792Z,8.40
2022-09-30T06:45:33.298Z,8.67
2022-09-30T06:48:03.915Z,10.47
2022-09-30T06:50:34.677Z,9.20
2022-09-30T06:53:08.365Z,9.87
2022-09-30T06:55:39.470Z,8.83
2022-09-30T06:58:11.318Z,9.97
2022-09-30T07:00:40.157Z,9.57
2022-09-30T07:03:10.065Z,9.57
2022-09-30T07:05:40.081Z,8.53
2022-09-30T07:08:09.112Z,10.77
2022-09-30T07:10:38.306Z,9.27
2022-09-30T07:13:06.883Z,9.63
2022-09-30T07:15:35.450Z,9.53
2022-09-30T07:18:04.110Z,11.30
2022-09-30T07:20:33.491Z,10.77
2022-09-30T07:23:03.550Z,11.03
2022-09-30T07:25:32.150Z,10.33
2022-09-30T07:28:00.731Z,13.57
2022-09-30T07:30:29.417Z,12.87
2022-09-30T07:32:57.977Z,14.67
2022-09-30T07:35:26.845Z,14.03
2022-09-30T07:37:55.462Z,16.57
2022-09-30T07:40:31.441Z,17.23
2022-09-30T07:43:00.414Z,19.03
2022-09-30T07:45:29.089Z,19.40
2022-09-30T07:47:59.168Z,20.37
2022-09-30T07:50:27.738Z,20.77
2022-09-30T07:52:56.443Z,22.00
2022-09-30T07:55:26.390Z,21.17
2022-09-30T07:57:55.027Z,22.50
2022-09-30T08:00:41.478Z,23.53
2022-09-30T08:03:10.803Z,20.57
2022-09-30T08:05:40.931Z,21.63
2022-09-30T08:08:09.692Z,23.17
2022-09-30T08:10:39.754Z,22.37
2022-09-30T08:13:09.661Z,20.40
2022-09-30T08:15:38.189Z,20.37
2022-09-30T08:18:07.046Z,20.70
2022-09-30T08:20:35.670Z,18.83
2022-09-30T08:23:04.346Z,19.97
2022-09-30T08:25:32.962Z,17.53
2022-09-30T08:28:04.355Z,20.13
2022-09-30T08:30:35.479Z,20.67
2022-09-30T08:33:04.187Z,21.80
2022-09-30T08:35:36.052Z,21.70
2022-09-30T08:38:04.922Z,21.77
2022-09-30T08:40:38.047Z,20.43
2022-09-30T08:43:21.487Z,20.97
2022-09-30T08:45:59.384Z,20.53
2022-09-30T08:48:40.927Z,20.23
2022-09-30T08:51:29.272Z,20.43
2022-09-30T08:54:02.666Z,20.13
2022-09-30T08:56:32.885Z,22.00
2022-09-30T08:59:13.351Z,20.93
2022-09-30T09:01:45.963Z,19.63
2022-09-30T09:04:16.474Z,20.37
2022-09-30T09:06:55.018Z,20.10
2022-09-30T09:09:49.304Z,19.43
2022-09-30T09:12:31.115Z,18.73
2022-09-30T09:15:16.220Z,17.87
2022-09-30T09:18:23.693Z,16.63
2022-09-30T09:20:57.845Z,17.13
2022-09-30T09:23:28.539Z,17.97
2022-09-30T09:25:57.150Z,17.20
2022-09-30T09:28:37.005Z,18.90
2022-09-30T09:31:10.798Z,16.70
2022-09-30T09:33:41.095Z,16.77
2022-09-30T09:36:24.285Z,16.70
2022-09-30T09:39:06.620Z,16.07
2022-09-30T09:41:43.854Z,16.50
2022-09-30T09:44:22.740Z,19.30
2022-09-30T09:47:02.069Z,17.90
2022-09-30T09:49:35.985Z,17.27
2022-09-30T09:52:31.231Z,18.47
2022-09-30T09:55:00.937Z,18.67
2022-09-30T09:57:32.551Z,18.50
2022-09-30T10:00:23.108Z,19.00
2022-09-30T10:03:05.045Z,19.73
2022-09-30T10:05:39.783Z,18.63
2022-09-30T10:08:15.142Z,20.20
2022-09-30T10:10:49.967Z,19.47
2022-09-30T10:13:20.514Z,22.17
2022-09-30T10:15:51.176Z,21.70
2022-09-30T10:18:27.296Z,20.83
2022-09-30T10:20:59.469Z,21.33
2022-09-30T10:23:31.487Z,21.97
2022-09-30T10:26:04.296Z,19.53
2022-09-30T10:28:36.190Z,20.63
2022-09-30T10:31:14.524Z,21.17
2022-09-30T10:33:47.435Z,20.00
2022-09-30T10:36:18.900Z,22.13
2022-09-30T10:38:54.597Z,22.13
2022-09-30T10:41:26.046Z,23.73
2022-09-30T10:43:57.248Z,24.13
2022-09-30T10:46:29.057Z,21.77
2022-09-30T10:49:00.517Z,24.30
2022-09-30T10:51:36.524Z,23.33
2022-09-30T10:54:07.339Z,24.67
2022-09-30T10:56:45.631Z,23.80
2022-09-30T10:59:22.331Z,22.17
2022-09-30T11:01:57.956Z,22.60
2022-09-30T11:04:35.108Z,21.87
2022-09-30T11:07:15.930Z,20.83
2022-09-30T11:09:50.513Z,19.67
2022-09-30T11:12:25.857Z,22.90
2022-09-30T11:15:03.312Z,20.67
2022-09-30T11:17:41.027Z,22.20
2022-09-30T11:20:21.013Z,22.30
2022-09-30T11:22:56.536Z,21.63
2022-09-30T11:25:34.366Z,20.77
2022-09-30T11:28:17.122Z,22.37
2022-09-30T11:30:52.842Z,21.63
2022-09-30T11:33:50.726Z,21.57
2022-09-30T11:36:27.999Z,20.93
2022-09-30T11:39:15.232Z,21.67
2022-09-30T11:41:48.779Z,21.23
2022-09-30T11:44:30.143Z,21.60
2022-09-30T11:47:33.403Z,22.03
2022-09-30T11:50:20.235Z,21.90
2022-09-30T11:53:01.698Z,21.30
2022-09-30T11:55:44.835Z,21.83
2022-09-30T11:58:39.896Z,21.63
2022-09-30T12:01:15.942Z,23.43
2022-09-30T12:03:50.635Z,21.03
2022-09-30T12:06:27.785Z,21.60
2022-09-30T12:09:02.774Z,20.73
2022-09-30T12:11:38.838Z,21.13
2022-09-30T12:14:15.342Z,20.03
2022-09-30T12:16:46.326Z,20.23
2022-09-30T12:19:23.057Z,20.60
2022-09-30T12:22:00.403Z,20.83
2022-09-30T12:24:36.830Z,20.10
2022-09-30T12:27:06.938Z,20.27
2022-09-30T12:29:58.356Z,20.00
2022-09-30T12:33:12.865Z,21.50
2022-09-30T12:36:08.257Z,20.33
2022-09-30T12:39:09.493Z,19.83
2022-09-30T12:41:51.095Z,20.37
2022-09-30T12:45:19.820Z,21.53
2022-09-30T12:47:50.413Z,19.23
2022-09-30T12:50:21.608Z,19.37
2022-09-30T12:52:50.972Z,20.20
2022-09-30T12:55:28.132Z,20.03
2022-09-30T12:58:02.771Z,21.57
2022-09-30T13:00:34.762Z,20.50
2022-09-30T13:03:07.394Z,21.37
2022-09-30T13:05:57.795Z,18.63
2022-09-30T13:08:48.875Z,18.87
2022-09-30T13:11:40.433Z,19.20
2022-09-30T13:14:35.006Z,18.73
2022-09-30T13:17:26.545Z,17.97
2022-09-30T13:19:57.540Z,17.50
2022-09-30T13:22:44.418Z,18.17
2022-09-30T13:25:15.879Z,17.03
2022-09-30T13:27:47.238Z,16.37
2022-09-30T13:30:42.521Z,18.43
2022-09-30T13:33:43.805Z,19.80
2022-09-30T13:36:27.060Z,17.07
2022-09-30T13:39:22.170Z,17.13
2022-09-30T13:42:02.683Z,17.17
2022-09-30T13:44:40.193Z,16.80
2022-09-30T13:47:19.013Z,16.80
2022-09-30T13:49:54.473Z,17.63
2022-09-30T13:52:28.155Z,18.57
2022-09-30T13:54:59.830Z,17.80
2022-09-30T13:57:35.497Z,16.67
2022-09-30T14:00:12.120Z,17.60
2022-09-30T14:03:15.064Z,16.90
2022-09-30T14:05:56.993Z,15.97
2022-09-30T14:09:04.287Z,17.40
2022-09-30T14:11:51.288Z,16.47
2022-09-30T14:14:55.773Z,16.87
2022-09-30T14:17:37.669Z,18.03
2022-09-30T14:20:32.166Z,16.13
2022-09-30T14:23:01.174Z,16.20
2022-09-30T14:25:36.787Z,15.83
2022-09-30T14:28:08.502Z,16.97
2022-09-30T14:30:41.851Z,16.53
2022-09-30T14:33:20.442Z,17.37
2022-09-30T14:35:53.945Z,16.47
2022-09-30T14:38:28.025Z,16.13
2022-09-30T14:41:01.783Z,16.80
2022-09-30T14:43:38.846Z,17.80
2022-09-30T14:46:21.178Z,17.27
2022-09-30T14:48:50.688Z,17.10
2022-09-30T14:51:24.115Z,16.70
2022-09-30T14:53:57.262Z,16.90
2022-09-30T14:56:30.575Z,15.53
2022-09-30T14:59:03.237Z,16.10
2022-09-30T15:01:36.239Z,18.40
2022-09-30T15:04:09.255Z,15.27
2022-09-30T15:06:44.173Z,16.70
2022-09-30T15:09:18.987Z,17.30
2022-09-30T15:11:48.199Z,16.67
2022-09-30T15:14:20.763Z,16.97
2022-09-30T15:16:50.949Z,15.47
2022-09-30T15:19:22.646Z,16.40
2022-09-30T15:21:55.361Z,15.57
2022-09-30T15:24:27.361Z,16.27
2022-09-30T15:26:57.127Z,15.60
2022-09-30T15:29:25.729Z,17.23
2022-09-30T15:32:01.424Z,17.20
2022-09-30T15:34:31.127Z,16.47
2022-09-30T15:37:06.777Z,15.90
2022-09-30T15:39:57.568Z,15.57
2022-09-30T15:42:36.269Z,16.60
2022-09-30T15:45:07.052Z,15.87
2022-09-30T15:47:56.350Z,16.40
2022-09-30T15:50:39.252Z,16.53
2022-09-30T15:53:21.297Z,15.13
2022-09-30T15:55:55.631Z,16.10
2022-09-30T15:58:37.910Z,17.53
2022-09-30T16:01:17.390Z,15.57
2022-09-30T16:03:54.300Z,16.57
2022-09-30T16:06:27.585Z,17.07
2022-09-30T16:09:01.587Z,15.20
2022-09-30T16:11:35.115Z,17.00
2022-09-30T16:14:12.992Z,16.93
2022-09-30T16:16:41.990Z,14.97
2022-09-30T16:19:18.454Z,16.20
2022-09-30T16:21:51.024Z,16.97
2022-09-30T16:24:47.403Z,16.63
2022-09-30T16:27:32.826Z,15.13
2022-09-30T16:30:02.376Z,15.60
2022-09-30T16:32:39.678Z,17.27
2022-09-30T16:35:16.840Z,14.27
2022-09-30T16:37:45.424Z,14.90
2022-09-30T16:40:21.399Z,14.47
2022-09-30T16:42:50.367Z,14.40
2022-09-30T16:45:19.231Z,14.43
2022-09-30T16:47:48.286Z,14.03
2022-09-30T16:50:25.474Z,15.87
2022-09-30T16:52:54.250Z,14.87
2022-09-30T16:55:25.210Z,16.43
2022-09-30T16:57:54.481Z,15.07
2022-09-30T17:00:23.183Z,14.73
2022-09-30T17:02:51.990Z,14.57
2022-09-30T17:05:22.160Z,15.20
2022-09-30T17:07:53.965Z,14.30
2022-09-30T17:10:28.076Z,14.67
2022-09-30T17:13:00.218Z,14.90
2022-09-30T17:15:30.692Z,14.23
2022-09-30T17:17:59.770Z,13.47
2022-09-30T17:20:28.519Z,14.43
2022-09-30T17:22:57.141Z,13.30
2022-09-30T17:25:27.073Z,15.10
2022-09-30T17:27:56.372Z,12.90
2022-09-30T17:30:24.935Z,14.33
2022-09-30T17:32:54.441Z,14.17
2022-09-30T17:35:23.192Z,13.33
2022-09-30T17:37:51.816Z,13.57
2022-09-30T17:40:37.524Z,14.27
2022-09-30T17:43:11.662Z,12.33
2022-09-30T17:45:43.285Z,13.30
2022-09-30T17:48:13.947Z,12.70
2022-09-30T17:50:44.324Z,15.13
2022-09-30T17:53:14.146Z,13.93
2022-09-30T17:55:43.618Z,13.77
2022-09-30T17:58:14.183Z,14.80
2022-09-30T18:00:42.779Z,12.80
2022-09-30T18:03:12.210Z,13.77
2022-09-30T18:05:40.781Z,13.20
2022-09-30T18:08:09.523Z,13.23
2022-09-30T18:10:39.012Z,13.93
2022-09-30T18:13:07.927Z,13.57
2022-09-30T18:15:39.971Z,13.03
2022-09-30T18:18:09.101Z,12.37
2022-09-30T18:20:38.388Z,13.17
2022-09-30T18:23:07.030Z,11.63
2022-09-30T18:25:35.814Z,12.50
2022-09-30T18:28:06.163Z,12.13
2022-09-30T18:30:34.976Z,13.33
2022-09-30T18:33:07.308Z,12.80
2022-09-30T18:35:37.206Z,12.03
2022-09-30T18:38:07.050Z,12.23
2022-09-30T18:40:35.704Z,12.37
2022-09-30T18:43:05.474Z,11.07
2022-09-30T18:45:36.656Z,12.20
2022-09-30T18:48:07.410Z,13.43
2022-09-30T18:50:36.120Z,12.33
2022-09-30T18:53:09.923Z,12.40
2022-09-30T18:55:39.595Z,11.73
2022-09-30T18:58:08.311Z,12.70
2022-09-30T19:00:38.349Z,11.87
2022-09-30T19:03:10.768Z,10.93
2022-09-30T19:05:39.533Z,12.17
2022-09-30T19:08:09.325Z,11.07
2022-09-30T19:10:42.217Z,13.00
2022-09-30T19:13:10.921Z,12.17
2022-09-30T19:15:39.747Z,12.03
2022-09-30T19:18:10.720Z,12.00
2022-09-30T19:20:40.106Z,13.23
2022-09-30T19:23:10.875Z,11.73
2022-09-30T19:25:39.919Z,11.67
2022-09-30T19:28:08.733Z,11.83
2022-09-30T19:30:42.090Z,13.20
2022-09-30T19:33:12.354Z,13.50
2022-09-30T19:35:41.155Z,12.97
2022-09-30T19:38:09.786Z,12.30
2022-09-30T19:40:38.645Z,11.93
2022-09-30T19:43:08.263Z,13.47
2022-09-30T19:45:37.019Z,14.20
2022-09-30T19:48:05.922Z,13.17
2022-09-30T19:50:36.833Z,14.87
2022-09-30T19:53:05.460Z,13.73
2022-09-30T19:55:47.723Z,13.33
2022-09-30T19:58:18.078Z,13.30
2022-09-30T20:00:54.621Z,13.10
2022-09-30T20:03:24.359Z,13.37
2022-09-30T20:05:59.922Z,12.63
2022-09-30T20:08:29.013Z,14.07
2022-09-30T20:11:03.225Z,13.50
2022-09-30T20:13:31.973Z,13.47
2022-09-30T20:16:01.038Z,13.67
2022-09-30T20:18:29.937Z,14.67
2022-09-30T20:21:02.068Z,12.90
2022-09-30T20:23:31.086Z,13.63
2022-09-30T20:26:04.484Z,13.17
2022-09-30T20:28:33.443Z,14.20
2022-09-30T20:31:07.424Z,13.03
2022-09-30T20:33:39.242Z,14.23
2022-09-30T20:36:11.511Z,13.00
2022-09-30T20:38:40.129Z,13.47
2022-09-30T20:41:08.798Z,13.70
2022-09-30T20:43:37.457Z,13.70
2022-09-30T20:46:08.487Z,13.37
2022-09-30T20:48:40.046Z,15.27
2022-09-30T20:51:11.454Z,13.50
2022-09-30T20:53:48.136Z,12.93
2022-09-30T20:56:18.023Z,15.90
2022-09-30T20:58:46.778Z,13.27
2022-09-30T21:01:18.645Z,13.43
2022-09-30T21:03:50.463Z,15.07
2022-09-30T21:06:21.856Z,13.30
2022-09-30T21:08:50.982Z,14.17
2022-09-30T21:11:19.923Z,13.73
2022-09-30T21:13:50.687Z,13.07
2022-09-30T21:16:21.149Z,13.57
2022-09-30T21:18:52.145Z,12.93
2022-09-30T21:21:24.803Z,12.97
2022-09-30T21:23:55.376Z,12.10
2022-09-30T21:26:24.388Z,14.63
2022-09-30T21:28:52.959Z,12.83
2022-09-30T21:31:24.164Z,13.00
2022-09-30T21:33:53.679Z,13.80
2022-09-30T21:36:24.346Z,13.77
2022-09-30T21:38:53.508Z,14.10
2022-09-30T21:41:22.976Z,16.47
2022-09-30T21:43:51.581Z,13.80
2022-09-30T21:46:20.316Z,14.30
2022-09-30T21:48:48.859Z,13.30
2022-09-30T21:51:17.996Z,13.60
2022-09-30T21:53:48.832Z,13.83
2022-09-30T21:56:17.404Z,12.73
2022-09-30T21:58:46.103Z,13.10
2022-09-30T22:01:14.759Z,12.70
2022-09-30T22:03:43.388Z,12.87
2022-09-30T22:06:12.560Z,12.97
2022-09-30T22:08:42.111Z,14.67
2022-09-30T22:11:13.615Z,13.00
2022-09-30T22:13:45.303Z,14.07
2022-09-30T22:16:16.314Z,12.37
2022-09-30T22:18:44.956Z,13.23
2022-09-30T22:21:15.557Z,14.63
2022-09-30T22:23:47.062Z,13.50
2022-09-30T22:26:19.125Z,13.03
2022-09-30T22:28:48.985Z,15.10
2022-09-30T22:31:19.561Z,14.20
2022-09-30T22:34:06.033Z,13.43
2022-09-30T22:36:52.236Z,15.03
2022-09-30T22:39:22.794Z,13.40
2022-09-30T22:41:54.229Z,12.80
2022-09-30T22:44:24.806Z,14.47
2022-09-30T22:46:54.421Z,14.30
2022-09-30T22:49:24.437Z,14.67
2022-09-30T22:51:53.580Z,13.77
2022-09-30T22:54:22.701Z,13.83
2022-09-30T22:56:51.454Z,14.20
2022-09-30T22:59:22.147Z,15.03
2022-09-30T23:01:50.729Z,16.27
2022-09-30T23:04:20.051Z,14.43
2022-09-30T23:06:49.510Z,14.27
2022-09-30T23:09:18.986Z,13.73
2022-09-30T23:11:48.325Z,14.80
2022-09-30T23:14:16.931Z,14.03
2022-09-30T23:16:47.509Z,14.53
2022-09-30T23:19:16.218Z,13.73
2022-09-30T23:21:45.055Z,13.90
2022-09-30T23:24:14.431Z,12.83
2022-09-30T23:26:43.512Z,15.77
2022-09-30T23:29:13.873Z,14.40
2022-09-30T23:31:42.975Z,13.80
2022-09-30T23:34:13.179Z,14.00
2022-09-30T23:36:42.112Z,14.77
2022-09-30T23:39:15.558Z,13.27
2022-09-30T23:41:46.274Z,14.30
2022-09-30T23:44:15.668Z,14.53
2022-09-30T23:47:04.257Z,15.50
2022-09-30T23:49:35.971Z,15.10
2022-09-30T23:52:08.044Z,13.20
2022-09-30T23:54:40.851Z,14.77
2022-09-30T23:57:10.601Z,13.10
2022-09-30T23:59:39.773Z,14.47
